Time;durP1;ratioP1;P1;durP2;ratioP2;P2;SDS_P1;SDS_P2;PMS_P1;PMS_P2;Temp;Humidity;BMP_temperature;BMP_pressure;BME280_temperature;BME280_humidity;BME280_pressure;Samples;Min_cycle;Max_cycle;Signal;HPM_P1;HPM_P2
2022/03/23 00:02:13;;;;;;;;;;;;;;;;;;4983359;28;1237;-72
2022/03/23 00:04:39;;;;;;;;;;;;;;;;;;4983197;28;1252;-72
2022/03/23 00:07:04;;;;;;;;;;;;;;;;;;4982595;28;1959;-72
2022/03/23 00:09:30;;;;;;;;;;;;;;;;;;4983227;28;1213;-72
2022/03/23 00:11:55;;;;;;;;;;;;;;;;;;4984004;28;1190;-72
2022/03/23 00:14:20;;;;;;;;;;;;;;;;;;4983228;28;1399;-72
2022/03/23 00:16:45;;;;;;;;;;;;;;;;;;4981773;28;1256;-72
2022/03/23 00:19:11;;;;;;;;;;;;;;;;;;4982190;28;1450;-72
2022/03/23 00:21:36;;;;;;;;;;;;;;;;;;4983270;28;1292;-72
2022/03/23 00:24:02;;;;;;;;;;;;;;;;;;4982942;28;1426;-71
2022/03/23 00:26:28;;;;;;;;;;;;;;;;;;4982980;28;1902;-72
2022/03/23 00:28:54;;;;;;;;;;;;;;;;;;4982593;28;1276;-71
2022/03/23 00:31:20;;;;;;;;;;;;;;;;;;4981273;28;1288;-73
2022/03/23 00:33:46;;;;;;;;;;;;;;;;;;4982812;28;1190;-73
2022/03/23 00:36:11;;;;;;;;;;;;;;;;;;4982871;28;1316;-72
2022/03/23 00:38:38;;;;;;;;;;;;;;;;;;4981646;28;1300;-73
2022/03/23 00:41:03;;;;;;;;;;;;;;;;;;4982056;28;1501;-73
2022/03/23 00:43:28;;;;;;;;;;;;;;;;;;4983387;28;1304;-73
2022/03/23 00:45:54;;;;;;;;;;;;;;;;;;4982216;28;1898;-73
2022/03/23 00:48:19;;;;;;;;;;;;;;;;;;4983050;28;1245;-73
2022/03/23 00:50:44;;;;;;;;;;;;;;;;;;4981657;28;1249;-73
2022/03/23 00:53:10;;;;;;;;;;;;;;;;;;4982221;28;1370;-72
2022/03/23 00:55:35;;;;;;;;;;;;;;;;;;4981325;28;1343;-72
2022/03/23 00:58:00;;;;;;;;;;;;;;;;;;4981386;28;1375;-72
2022/03/23 01:00:25;;;;;;;;;;;;;;;;;;4982672;28;1187;-72
2022/03/23 01:02:51;;;;;;;;;;;;;;;;;;4982540;28;1237;-72
2022/03/23 01:05:16;;;;;;;;;;;;;;;;;;4981971;28;1906;-72
2022/03/23 01:07:42;;;;;;;;;;;;;;;;;;4981303;28;1510;-71
2022/03/23 01:10:11;;;;;;;;;;;;;;;;;;4982912;28;1248;-72
2022/03/23 01:12:36;;;;;;;;;;;;;;;;;;4981239;28;1180;-72
2022/03/23 01:15:01;;;;;;;;;;;;;;;;;;4981870;28;1324;-71
2022/03/23 01:17:27;;;;;;;;;;;;;;;;;;4981486;28;1288;-71
2022/03/23 01:19:52;;;;;;;;;;;;;;;;;;4981056;28;1248;-72
2022/03/23 01:22:17;;;;;;;;;;;;;;;;;;4982365;28;1700;-71
2022/03/23 01:24:43;;;;;;;;;;;;;;;;;;4982180;28;1249;-71
2022/03/23 01:27:09;;;;;;;;;;;;;;;;;;4981593;28;1902;-71
2022/03/23 01:29:34;;;;;;;;;;;;;;;;;;4981589;28;1347;-72
2022/03/23 01:32:00;;;;;;;;;;;;;;;;;;4982790;28;1331;-71
2022/03/23 01:34:25;;;;;;;;;;;;;;;;;;4981375;28;1344;-71
2022/03/23 01:36:50;;;;;;;;;;;;;;;;;;4980913;28;1312;-71
2022/03/23 01:39:16;;;;;;;;;;;;;;;;;;4982561;28;1430;-72
2022/03/23 01:41:41;;;;;;;;;;;;;;;;;;4982222;28;1241;-72
2022/03/23 01:44:17;;;;;;;;;;;;;;;;;;4982623;28;1244;-72
2022/03/23 01:46:59;;;;;;;;;;;;;;;;;;4980947;28;1899;-71
2022/03/23 01:49:25;;;;;;;;;;;;;;;;;;4982851;28;1414;-73
2022/03/23 01:51:50;;;;;;;;;;;;;;;;;;4988319;28;1474;-73
2022/03/23 01:54:15;;;;;;;;;;;;;;;;;;4987515;28;1373;-72
2022/03/23 01:56:41;;;;;;;;;;;;;;;;;;4988078;28;1326;-72
2022/03/23 01:59:07;;;;;;;;;;;;;;;;;;4987354;28;1438;-72
2022/03/23 02:01:33;;;;;;;;;;;;;;;;;;4988320;28;1261;-72
2022/03/23 02:03:58;;;;;;;;;;;;;;;;;;4988683;28;1477;-73
2022/03/23 02:06:23;;;;;;;;;;;;;;;;;;4986100;28;1894;-72
2022/03/23 02:08:49;;;;;;;;;;;;;;;;;;4988164;28;1321;-72
2022/03/23 02:11:14;;;;;;;;;;;;;;;;;;4987910;28;1107;-72
2022/03/23 02:13:39;;;;;;;;;;;;;;;;;;4987140;28;1434;-72
2022/03/23 02:16:05;;;;;;;;;;;;;;;;;;4986897;28;1327;-72
2022/03/23 02:18:30;;;;;;;;;;;;;;;;;;4987234;28;1435;-72
2022/03/23 02:20:55;;;;;;;;;;;;;;;;;;4988200;28;1229;-72
2022/03/23 02:23:21;;;;;;;;;;;;;;;;;;4988240;28;1198;-72
2022/03/23 02:25:47;;;;;;;;;;;;;;;;;;4989452;28;1898;-72
2022/03/23 02:28:14;;;;;;;;;;;;;;;;;;4985332;28;1489;-72
2022/03/23 02:30:40;;;;;;;;;;;;;;;;;;4986640;28;1561;-72
2022/03/23 02:33:05;;;;;;;;;;;;;;;;;;4987629;28;1335;-72
2022/03/23 02:35:30;;;;;;;;;;;;;;;;;;4985999;28;1341;-72
2022/03/23 02:37:55;;;;;;;;;;;;;;;;;;4989131;28;1362;-72
2022/03/23 02:40:20;;;;;;;;;;;;;;;;;;4987751;28;1245;-72
2022/03/23 02:42:46;;;;;;;;;;;;;;;;;;4987095;28;1264;-72
2022/03/23 02:45:11;;;;;;;;;;;;;;;;;;4986968;28;1890;-72
2022/03/23 02:47:36;;;;;;;;;;;;;;;;;;4987976;28;1125;-72
2022/03/23 02:50:02;;;;;;;;;;;;;;;;;;4985211;28;1455;-72
2022/03/23 02:52:28;;;;;;;;;;;;;;;;;;4987907;28;1292;-72
2022/03/23 03:03:31;;;;;;;;;;;;;;;;;;4985172;28;1082;-73
2022/03/23 03:05:57;;;;;;;;;;;;;;;;;;4983420;28;1965;-73
2022/03/23 03:11:06;;;;;;;;;;;;;;;;;;4984549;28;1074;-73
2022/03/23 03:13:31;;;;;;;;;;;;;;;;;;4984020;28;1497;-73
2022/03/23 03:16:01;;;;;;;;;;;;;;;;;;4983575;28;1300;-73
2022/03/23 03:18:29;;;;;;;;;;;;;;;;;;4984141;28;1137;-73
2022/03/23 03:20:54;;;;;;;;;;;;;;;;;;4984306;28;1269;-73
2022/03/23 03:23:19;;;;;;;;;;;;;;;;;;4983841;28;1261;-73
2022/03/23 03:25:44;;;;;;;;;;;;;;;;;;4984856;28;1906;-73
2022/03/23 03:28:09;;;;;;;;;;;;;;;;;;4983235;28;1446;-73
2022/03/23 03:33:53;;;;;;;;;;;;;;;;;;4981952;28;1397;-73
2022/03/23 03:36:18;;;;;;;;;;;;;;;;;;4983228;28;1279;-72
2022/03/23 03:38:44;;;;;;;;;;;;;;;;;;4983125;28;1166;-73
2022/03/23 03:41:09;;;;;;;;;;;;;;;;;;4984114;28;1189;-73
2022/03/23 03:43:35;;;;;;;;;;;;;;;;;;4983841;28;1240;-73
2022/03/23 03:46:01;;;;;;;;;;;;;;;;;;4983210;28;1973;-73
2022/03/23 03:48:26;;;;;;;;;;;;;;;;;;4982347;28;1498;-73
2022/03/23 03:50:51;;;;;;;;;;;;;;;;;;4984017;28;1241;-73
2022/03/23 03:53:17;;;;;;;;;;;;;;;;;;4983925;28;1244;-74
2022/03/23 03:55:42;;;;;;;;;;;;;;;;;;4983391;28;1320;-73
2022/03/23 03:58:08;;;;;;;;;;;;;;;;;;4983389;28;1268;-73
2022/03/23 04:00:34;;;;;;;;;;;;;;;;;;4983454;28;1253;-73
2022/03/23 04:02:59;;;;;;;;;;;;;;;;;;4983765;28;1418;-73
2022/03/23 04:05:24;;;;;;;;;;;;;;;;;;4982896;28;1890;-73
2022/03/23 04:07:50;;;;;;;;;;;;;;;;;;4983203;28;1347;-73
2022/03/23 04:10:15;;;;;;;;;;;;;;;;;;4983922;28;1448;-73
2022/03/23 04:12:41;;;;;;;;;;;;;;;;;;4981714;28;1651;-73
2022/03/23 04:15:06;;;;;;;;;;;;;;;;;;4982607;28;1288;-73
2022/03/23 04:17:31;;;;;;;;;;;;;;;;;;4982353;28;1371;-73
2022/03/23 04:19:57;;;;;;;;;;;;;;;;;;4983772;28;1248;-73
2022/03/23 04:22:22;;;;;;;;;;;;;;;;;;4983282;28;1331;-73
2022/03/23 04:24:47;;;;;;;;;;;;;;;;;;4982889;28;1245;-73
2022/03/23 04:27:13;;;;;;;;;;;;;;;;;;4980941;28;1902;-74
2022/03/23 04:29:39;;;;;;;;;;;;;;;;;;4983238;28;1274;-73
2022/03/23 04:32:04;;;;;;;;;;;;;;;;;;4982858;28;1414;-72
2022/03/23 04:34:30;;;;;;;;;;;;;;;;;;4983701;28;1265;-72
2022/03/23 04:36:55;;;;;;;;;;;;;;;;;;4982636;28;1407;-72
2022/03/23 04:39:20;;;;;;;;;;;;;;;;;;4982912;28;1323;-72
2022/03/23 04:41:45;;;;;;;;;;;;;;;;;;4982178;28;1497;-72
2022/03/23 04:44:11;;;;;;;;;;;;;;;;;;4982264;28;1489;-72
2022/03/23 04:46:37;;;;;;;;;;;;;;;;;;4982205;28;1953;-72
2022/03/23 04:49:02;;;;;;;;;;;;;;;;;;4982954;28;1320;-72
2022/03/23 04:51:28;;;;;;;;;;;;;;;;;;4982493;28;1297;-72
2022/03/23 04:53:53;;;;;;;;;;;;;;;;;;4982938;28;1256;-72
2022/03/23 04:56:18;;;;;;;;;;;;;;;;;;4981816;28;1339;-72
2022/03/23 04:58:43;;;;;;;;;;;;;;;;;;4981843;28;1462;-72
2022/03/23 05:01:08;;;;;;;;;;;;;;;;;;4982063;28;1241;-72
2022/03/23 05:03:34;;;;;;;;;;;;;;;;;;4982531;28;1289;-72
2022/03/23 05:05:59;;;;;;;;;;;;;;;;;;4982039;28;1910;-72
2022/03/23 05:08:24;;;;;;;;;;;;;;;;;;4982887;28;1253;-72
2022/03/23 05:10:50;;;;;;;;;;;;;;;;;;4982265;28;1245;-72
2022/03/23 05:13:15;;;;;;;;;;;;;;;;;;4981255;28;1443;-73
2022/03/23 05:15:40;;;;;;;;;;;;;;;;;;4983889;28;1367;-73
2022/03/23 05:18:05;;;;;;;;;;;;;;;;;;4983020;28;1325;-72
2022/03/23 05:20:30;;;;;;;;;;;;;;;;;;4982233;28;1272;-73
2022/03/23 05:22:56;;;;;;;;;;;;;;;;;;4982805;28;1418;-72
2022/03/23 05:25:21;;;;;;;;;;;;;;;;;;4981673;28;1902;-73
2022/03/23 05:27:47;;;;;;;;;;;;;;;;;;4981560;28;1426;-72
2022/03/23 05:30:12;;;;;;;;;;;;;;;;;;4981998;28;1121;-73
2022/03/23 05:32:39;;;;;;;;;;;;;;;;;;4982068;28;1225;-73
2022/03/23 05:35:04;;;;;;;;;;;;;;;;;;4981719;28;1367;-73
2022/03/23 05:37:30;;;;;;;;;;;;;;;;;;4982975;28;1328;-75
2022/03/23 05:39:55;;;;;;;;;;;;;;;;;;4981798;28;1348;-71
2022/03/23 05:42:20;;;;;;;;;;;;;;;;;;4979526;28;1732;-71
2022/03/23 05:44:45;;;;;;;;;;;;;;;;;;4982204;28;1078;-71
2022/03/23 05:47:11;;;;;;;;;;;;;;;;;;4981139;28;1922;-72
2022/03/23 05:49:36;;;;;;;;;;;;;;;;;;4981053;28;1249;-73
2022/03/23 05:52:01;;;;;;;;;;;;;;;;;;4982905;28;1336;-70
2022/03/23 05:54:27;;;;;;;;;;;;;;;;;;4982248;28;1196;-78
2022/03/23 05:56:52;;;;;;;;;;;;;;;;;;4981392;28;1395;-73
2022/03/23 05:59:17;;;;;;;;;;;;;;;;;;4981879;28;1248;-73
2022/03/23 06:01:43;;;;;;;;;;;;;;;;;;4984241;28;1315;-72
2022/03/23 06:04:08;;;;;;;;;;;;;;;;;;4981020;28;1312;-72
2022/03/23 06:06:33;;;;;;;;;;;;;;;;;;4982084;28;1887;-72
2022/03/23 06:08:59;;;;;;;;;;;;;;;;;;4980699;28;1494;-73
2022/03/23 06:11:24;;;;;;;;;;;;;;;;;;4980694;28;1509;-73
2022/03/23 06:13:49;;;;;;;;;;;;;;;;;;4982457;28;1122;-72
2022/03/23 06:16:15;;;;;;;;;;;;;;;;;;4981845;28;1255;-72
2022/03/23 06:18:40;;;;;;;;;;;;;;;;;;4981739;28;1316;-72
2022/03/23 06:21:06;;;;;;;;;;;;;;;;;;4981928;28;1204;-72
2022/03/23 06:23:31;;;;;;;;;;;;;;;;;;4981540;28;1260;-72
2022/03/23 06:25:56;;;;;;;;;;;;;;;;;;4980901;28;1966;-72
2022/03/23 06:28:23;;;;;;;;;;;;;;;;;;4981884;28;1401;-71
2022/03/23 06:30:48;;;;;;;;;;;;;;;;;;4981825;28;1406;-72
2022/03/23 06:33:13;;;;;;;;;;;;;;;;;;4981665;28;1276;-72
2022/03/23 06:35:39;;;;;;;;;;;;;;;;;;4981530;28;1335;-72
2022/03/23 06:38:04;;;;;;;;;;;;;;;;;;4983140;28;1362;-72
2022/03/23 06:40:29;;;;;;;;;;;;;;;;;;4982920;28;1419;-72
2022/03/23 06:42:55;;;;;;;;;;;;;;;;;;4984038;28;1339;-74
2022/03/23 06:45:20;;;;;;;;;;;;;;;;;;4984647;28;1879;-73
2022/03/23 06:47:45;;;;;;;;;;;;;;;;;;4984499;28;1351;-74
2022/03/23 06:50:11;;;;;;;;;;;;;;;;;;4984352;28;1304;-74
2022/03/23 06:52:36;;;;;;;;;;;;;;;;;;4984493;28;1288;-74
2022/03/23 06:55:01;;;;;;;;;;;;;;;;;;4983083;28;1276;-74
2022/03/23 06:57:26;;;;;;;;;;;;;;;;;;4983267;28;1407;-74
2022/03/23 06:59:51;;;;;;;;;;;;;;;;;;4984457;28;1268;-74
2022/03/23 07:02:17;;;;;;;;;;;;;;;;;;4983438;28;1387;-73
2022/03/23 07:04:42;;;;;;;;;;;;;;;;;;4983925;28;1240;-73
2022/03/23 07:07:07;;;;;;;;;;;;;;;;;;4984467;28;1894;-73
2022/03/23 07:09:32;;;;;;;;;;;;;;;;;;4981332;28;1584;-72
2022/03/23 07:12:02;;;;;;;;;;;;;;;;;;4982182;28;1212;-72
2022/03/23 07:14:28;;;;;;;;;;;;;;;;;;4983794;28;1264;-72
2022/03/23 07:16:53;;;;;;;;;;;;;;;;;;4983708;28;1458;-73
2022/03/23 07:19:18;;;;;;;;;;;;;;;;;;4984970;28;1264;-73
2022/03/23 07:21:44;;;;;;;;;;;;;;;;;;4983847;28;1271;-73
2022/03/23 07:24:10;;;;;;;;;;;;;;;;;;4983752;28;1293;-73
2022/03/23 07:26:35;;;;;;;;;;;;;;;;;;4981950;28;1902;-73
2022/03/23 07:29:01;;;;;;;;;;;;;;;;;;4984212;28;1154;-73
2022/03/23 07:31:26;;;;;;;;;;;;;;;;;;4984124;28;1245;-74
2022/03/23 07:33:51;;;;;;;;;;;;;;;;;;4982093;28;1438;-73
2022/03/23 07:36:17;;;;;;;;;;;;;;;;;;4983579;28;1347;-73
2022/03/23 07:38:43;;;;;;;;;;;;;;;;;;4980938;28;1435;-73
2022/03/23 07:41:08;;;;;;;;;;;;;;;;;;4983253;28;1241;-73
2022/03/23 07:43:33;;;;;;;;;;;;;;;;;;4983494;28;1390;-73
2022/03/23 07:45:59;;;;;;;;;;;;;;;;;;4982625;28;1895;-73
2022/03/23 07:48:24;;;;;;;;;;;;;;;;;;4982415;28;1380;-73
2022/03/23 07:50:52;;;;;;;;;;;;;;;;;;4983130;28;1308;-74
2022/03/23 07:53:18;;;;;;;;;;;;;;;;;;4983455;28;1279;-73
2022/03/23 07:55:44;;;;;;;;;;;;;;;;;;4981962;28;1363;-73
2022/03/23 07:58:09;;;;;;;;;;;;;;;;;;4983648;28;1216;-74
2022/03/23 08:00:35;;;;;;;;;;;;;;;;;;4983317;28;1407;-73
2022/03/23 08:03:00;;;;;;;;;;;;;;;;;;4983508;28;1356;-73
2022/03/23 08:05:25;;;;;;;;;;;;;;;;;;4982061;28;1967;-73
2022/03/23 08:07:50;;;;;;;;;;;;;;;;;;4983579;28;1272;-73
2022/03/23 08:10:16;;;;;;;;;;;;;;;;;;4982875;28;1181;-73
2022/03/23 08:12:41;;;;;;;;;;;;;;;;;;4983253;28;1304;-73
2022/03/23 08:15:07;;;;;;;;;;;;;;;;;;4981585;28;1454;-73
2022/03/23 08:17:32;;;;;;;;;;;;;;;;;;4980992;28;1435;-73
2022/03/23 08:22:41;;;;;;;;;;;;;;;;;;4983723;28;1115;-72
2022/03/23 08:25:06;;;;;;;;;;;;;;;;;;4983864;28;1209;-73
2022/03/23 08:27:31;;;;;;;;;;;;;;;;;;4982403;28;1894;-73
2022/03/23 08:29:57;;;;;;;;;;;;;;;;;;4983211;28;1300;-73
2022/03/23 08:32:22;;;;;;;;;;;;;;;;;;4982611;28;1395;-72
2022/03/23 08:34:48;;;;;;;;;;;;;;;;;;4982616;28;1411;-73
2022/03/23 08:37:13;;;;;;;;;;;;;;;;;;4983744;28;1394;-73
2022/03/23 08:39:39;;;;;;;;;;;;;;;;;;4982395;28;1221;-73
2022/03/23 08:42:05;;;;;;;;;;;;;;;;;;4982830;28;1411;-73
2022/03/23 08:44:31;;;;;;;;;;;;;;;;;;4982275;28;1244;-73
2022/03/23 08:46:56;;;;;;;;;;;;;;;;;;4981357;28;1970;-73
2022/03/23 08:49:21;;;;;;;;;;;;;;;;;;4982002;28;1268;-73
2022/03/23 08:51:46;;;;;;;;;;;;;;;;;;4983160;28;1157;-73
2022/03/23 08:54:11;;;;;;;;;;;;;;;;;;4983183;28;1312;-72
2022/03/23 08:56:37;;;;;;;;;;;;;;;;;;4982587;28;1276;-73
2022/03/23 08:59:02;;;;;;;;;;;;;;;;;;4983260;28;1268;-72
2022/03/23 09:01:27;;;;;;;;;;;;;;;;;;4981099;28;1403;-72
2022/03/23 09:03:53;;;;;;;;;;;;;;;;;;4982430;28;1288;-72
2022/03/23 09:06:18;;;;;;;;;;;;;;;;;;4982651;28;1929;-73
2022/03/23 09:08:44;;;;;;;;;;;;;;;;;;4982419;28;1327;-73
2022/03/23 09:11:09;;;;;;;;;;;;;;;;;;4964623;28;1471;-72
2022/03/23 09:13:34;;;;;;;;;;;;;;;;;;4980542;28;1422;-72
2022/03/23 09:16:00;;;;;;;;;;;;;;;;;;4981996;28;1264;-73
2022/03/23 09:18:26;;;;;;;;;;;;;;;;;;4980642;28;1529;-73
2022/03/23 09:20:51;;;;;;;;;;;;;;;;;;4980478;28;1166;-73
2022/03/23 09:23:17;;;;;;;;;;;;;;;;;;4981768;28;1233;-72
2022/03/23 09:25:43;;;;;;;;;;;;;;;;;;4983937;28;1886;-74
2022/03/23 09:28:09;;;;;;;;;;;;;;;;;;4984200;28;1409;-75
2022/03/23 09:30:34;;;;;;;;;;;;;;;;;;4982248;28;1261;-76
2022/03/23 09:33:00;;;;;;;;;;;;;;;;;;4983104;28;1288;-75
2022/03/23 09:35:26;;;;;;;;;;;;;;;;;;4982217;28;1185;-75
2022/03/23 09:37:52;;;;;;;;;;;;;;;;;;4983986;28;1256;-76
2022/03/23 09:40:20;;;;;;;;;;;;;;;;;;4983796;28;1245;-77
2022/03/23 09:42:45;;;;;;;;;;;;;;;;;;4982423;28;1252;-73
2022/03/23 09:45:15;;;;;;;;;;;;;;;;;;4980718;28;1431;-76
2022/03/23 09:47:41;;;;;;;;;;;;;;;;;;4981333;28;1898;-73
2022/03/23 09:50:08;;;;;;;;;;;;;;;;;;4981590;28;1367;-72
2022/03/23 09:52:34;;;;;;;;;;;;;;;;;;4981776;28;1479;-72
2022/03/23 09:54:59;;;;;;;;;;;;;;;;;;4982013;28;1232;-74
2022/03/23 09:57:24;;;;;;;;;;;;;;;;;;4981531;28;1367;-72
2022/03/23 09:59:49;;;;;;;;;;;;;;;;;;4981505;28;1196;-73
2022/03/23 10:02:35;;;;;;;;;;;;;;;;;;4980597;28;1627;-73
2022/03/23 10:05:03;;;;;;;;;;;;;;;;;;4979622;28;1546;-72
2022/03/23 10:07:37;;;;;;;;;;;;;;;;;;4983288;28;1971;-74
2022/03/23 10:10:07;;;;;;;;;;;;;;;;;;4981158;28;1308;-74
2022/03/23 10:12:51;;;;;;;;;;;;;;;;;;4987178;28;1284;-73
2022/03/23 10:15:35;;;;;;;;;;;;;;;;;;4987794;28;1366;-74
2022/03/23 10:18:22;;;;;;;;;;;;;;;;;;4987491;28;1296;-73
2022/03/23 10:20:48;;;;;;;;;;;;;;;;;;4986744;28;1383;-74
2022/03/23 10:23:18;;;;;;;;;;;;;;;;;;4988135;28;1379;-73
2022/03/23 10:25:44;;;;;;;;;;;;;;;;;;4988080;28;1958;-74
2022/03/23 10:28:13;;;;;;;;;;;;;;;;;;4987457;28;1221;-73
2022/03/23 10:30:38;;;;;;;;;;;;;;;;;;4984069;28;1449;-74
2022/03/23 10:33:15;;;;;;;;;;;;;;;;;;4987516;28;1391;-73
2022/03/23 10:35:40;;;;;;;;;;;;;;;;;;4986046;28;1505;-73
2022/03/23 10:38:09;;;;;;;;;;;;;;;;;;4986681;28;1395;-72
2022/03/23 10:40:34;;;;;;;;;;;;;;;;;;4985645;28;1391;-75
2022/03/23 10:43:00;;;;;;;;;;;;;;;;;;4988137;28;1366;-71
2022/03/23 10:45:31;;;;;;;;;;;;;;;;;;4984189;28;1307;-72
2022/03/23 10:48:05;;;;;;;;;;;;;;;;;;4985833;28;1500;-72
2022/03/23 10:50:30;;;;;;;;;;;;;;;;;;4983987;28;1218;-73
2022/03/23 10:52:57;;;;;;;;;;;;;;;;;;4985893;28;1492;-70
2022/03/23 10:55:24;;;;;;;;;;;;;;;;;;4983776;28;1386;-72
2022/03/23 11:00:53;;;;;;;;;;;;;;;;;;4987042;28;1390;-72
2022/03/23 11:03:18;;;;;;;;;;;;;;;;;;4986119;28;1293;-70
2022/03/23 11:05:45;;;;;;;;;;;;;;;;;;4983140;28;1887;-71
2022/03/23 11:08:14;;;;;;;;;;;;;;;;;;4980029;28;1685;-71
2022/03/23 11:16:10;;;;;;;;;;;;;;;;;;4982615;28;1419;-71
2022/03/23 11:18:35;;;;;;;;;;;;;;;;;;4984495;28;1244;-71
2022/03/23 11:21:01;;;;;;;;;;;;;;;;;;4981961;28;1449;-75
2022/03/23 11:23:35;;;;;;;;;;;;;;;;;;4980055;28;1462;-71
2022/03/23 11:26:02;;;;;;;;;;;;;;;;;;4978825;28;1969;-72
2022/03/23 11:28:28;;;;;;;;;;;;;;;;;;4980199;28;1523;-71
2022/03/23 11:30:55;;;;;;;;;;;;;;;;;;4983262;28;1260;-72
2022/03/23 11:33:22;;;;;;;;;;;;;;;;;;4982594;28;1394;-70
2022/03/23 11:35:49;;;;;;;;;;;;;;;;;;4966218;28;1626;-71
2022/03/23 11:38:15;;;;;;;;;;;;;;;;;;4987626;28;1331;-71
2022/03/23 11:40:41;;;;;;;;;;;;;;;;;;4983713;28;1284;-70
2022/03/23 11:43:08;;;;;;;;;;;;;;;;;;4982612;28;1256;-70
2022/03/23 11:45:34;;;;;;;;;;;;;;;;;;4980440;28;1898;-70
2022/03/23 11:48:04;;;;;;;;;;;;;;;;;;4980897;28;1457;-70
2022/03/23 11:50:34;;;;;;;;;;;;;;;;;;4981385;28;1415;-70
2022/03/23 11:53:03;;;;;;;;;;;;;;;;;;4983448;28;1042;-69
2022/03/23 11:55:42;;;;;;;;;;;;;;;;;;4982245;28;1264;-69
2022/03/23 11:58:15;;;;;;;;;;;;;;;;;;4981610;28;1457;-69
2022/03/23 12:00:51;;;;;;;;;;;;;;;;;;4981761;28;1358;-70
2022/03/23 12:03:35;;;;;;;;;;;;;;;;;;4982555;28;1097;-69
2022/03/23 12:06:06;;;;;;;;;;;;;;;;;;4979915;28;1964;-69
2022/03/23 12:09:00;;;;;;;;;;;;;;;;;;4982329;28;1478;-69
2022/03/23 12:11:37;;;;;;;;;;;;;;;;;;4981369;28;1225;-70
2022/03/23 12:14:04;;;;;;;;;;;;;;;;;;4981166;28;1450;-70
2022/03/23 12:16:48;;;;;;;;;;;;;;;;;;4981744;28;1358;-69
2022/03/23 12:19:17;;;;;;;;;;;;;;;;;;4982188;28;1250;-70
2022/03/23 12:21:58;;;;;;;;;;;;;;;;;;4979988;28;1423;-69
2022/03/23 12:24:43;;;;;;;;;;;;;;;;;;4982650;28;1233;-70
2022/03/23 12:27:35;;;;;;;;;;;;;;;;;;4980671;28;1898;-70
2022/03/23 12:30:05;;;;;;;;;;;;;;;;;;4978184;28;1249;-70
2022/03/23 12:32:37;;;;;;;;;;;;;;;;;;4981888;28;1229;-70
2022/03/23 12:35:03;;;;;;;;;;;;;;;;;;4982669;28;1379;-70
2022/03/23 12:37:35;;;;;;;;;;;;;;;;;;4981800;28;1205;-70
2022/03/23 12:40:05;;;;;;;;;;;;;;;;;;4979797;28;1285;-70
2022/03/23 12:42:31;;;;;;;;;;;;;;;;;;4981654;28;1207;-70
2022/03/23 12:45:00;;;;;;;;;;;;;;;;;;4982362;28;1245;-69
2022/03/23 12:47:27;;;;;;;;;;;;;;;;;;4981729;28;1898;-70
2022/03/23 12:58:06;;;;;;;;;;;;;;;;;;4983409;28;1336;-70
2022/03/23 13:00:33;;;;;;;;;;;;;;;;;;4980024;28;1450;-69
2022/03/23 13:03:04;;;;;;;;;;;;;;;;;;4982469;28;1491;-70
2022/03/23 13:05:31;;;;;;;;;;;;;;;;;;4978488;28;1439;-69
2022/03/23 13:07:57;;;;;;;;;;;;;;;;;;4981539;28;1894;-69
2022/03/23 13:10:24;;;;;;;;;;;;;;;;;;4980863;28;1320;-69
2022/03/23 13:12:50;;;;;;;;;;;;;;;;;;4981352;28;1256;-69
2022/03/23 13:15:19;;;;;;;;;;;;;;;;;;4976140;28;1375;-69
2022/03/23 13:17:45;;;;;;;;;;;;;;;;;;4962243;28;1474;-68
2022/03/23 13:20:12;;;;;;;;;;;;;;;;;;4980031;28;1332;-68
2022/03/23 13:22:38;;;;;;;;;;;;;;;;;;4978649;28;1494;-69
2022/03/23 13:25:07;;;;;;;;;;;;;;;;;;4980649;28;1363;-71
2022/03/23 13:27:33;;;;;;;;;;;;;;;;;;4981961;28;1959;-71
2022/03/23 13:29:59;;;;;;;;;;;;;;;;;;4981458;28;1434;-72
2022/03/23 13:32:30;;;;;;;;;;;;;;;;;;4982963;28;1477;-71
2022/03/23 13:34:56;;;;;;;;;;;;;;;;;;4982566;28;1375;-71
2022/03/23 13:37:22;;;;;;;;;;;;;;;;;;4981981;28;1304;-72
2022/03/23 13:39:47;;;;;;;;;;;;;;;;;;4979111;28;1526;-71
2022/03/23 13:44:57;;;;;;;;;;;;;;;;;;4981104;28;1102;-71
2022/03/23 13:47:49;;;;;;;;;;;;;;;;;;4980228;28;1972;-71
2022/03/23 13:50:15;;;;;;;;;;;;;;;;;;4977902;28;1430;-71
2022/03/23 13:52:42;;;;;;;;;;;;;;;;;;4980882;28;1253;-71
2022/03/23 13:55:09;;;;;;;;;;;;;;;;;;4980598;28;1318;-71
2022/03/23 13:57:36;;;;;;;;;;;;;;;;;;4981456;28;1288;-71
2022/03/23 14:00:03;;;;;;;;;;;;;;;;;;4979441;28;1418;-70
2022/03/23 14:02:28;;;;;;;;;;;;;;;;;;4980161;28;1332;-70
2022/03/23 14:04:54;;;;;;;;;;;;;;;;;;4980843;28;1405;-70
2022/03/23 14:07:19;;;;;;;;;;;;;;;;;;4978895;28;1902;-71
2022/03/23 14:09:45;;;;;;;;;;;;;;;;;;4963983;28;1408;-71
2022/03/23 14:12:11;;;;;;;;;;;;;;;;;;4977439;28;1965;-70
2022/03/23 14:14:37;;;;;;;;;;;;;;;;;;4980576;28;1245;-71
2022/03/23 14:17:23;;;;;;;;;;;;;;;;;;4980671;28;1273;-72
2022/03/23 14:19:50;;;;;;;;;;;;;;;;;;4981021;28;1118;-70
2022/03/23 14:22:17;;;;;;;;;;;;;;;;;;4980801;28;1458;-70
2022/03/23 14:24:42;;;;;;;;;;;;;;;;;;4962412;28;1794;-70
2022/03/23 14:27:14;;;;;;;;;;;;;;;;;;4980551;28;1918;-70
2022/03/23 14:29:41;;;;;;;;;;;;;;;;;;4978590;28;1418;-70
2022/03/23 14:32:09;;;;;;;;;;;;;;;;;;4980116;28;1173;-70
2022/03/23 14:34:36;;;;;;;;;;;;;;;;;;4980489;28;1328;-70
2022/03/23 14:37:06;;;;;;;;;;;;;;;;;;4979210;28;1459;-70
2022/03/23 14:39:51;;;;;;;;;;;;;;;;;;4979292;28;1426;-70
2022/03/23 14:42:19;;;;;;;;;;;;;;;;;;4979608;28;1217;-70
2022/03/23 14:44:46;;;;;;;;;;;;;;;;;;4979079;28;1450;-70
2022/03/23 14:47:12;;;;;;;;;;;;;;;;;;4978458;28;1977;-76
2022/03/23 14:49:38;;;;;;;;;;;;;;;;;;4982306;28;1221;-70
2022/03/23 14:52:05;;;;;;;;;;;;;;;;;;4978543;28;1510;-70
2022/03/23 14:54:30;;;;;;;;;;;;;;;;;;4979189;28;1359;-70
2022/03/23 14:56:55;;;;;;;;;;;;;;;;;;4979853;28;1336;-70
2022/03/23 14:59:21;;;;;;;;;;;;;;;;;;4982887;28;1340;-71
2022/03/23 15:01:48;;;;;;;;;;;;;;;;;;4983437;28;1201;-70
2022/03/23 15:04:14;;;;;;;;;;;;;;;;;;4982637;28;1450;-69
2022/03/23 15:14:51;;;;;;;;;;;;;;;;;;4982716;28;982;-69
2022/03/23 15:17:16;;;;;;;;;;;;;;;;;;4980127;28;2023;-69
2022/03/23 15:19:42;;;;;;;;;;;;;;;;;;4981697;28;1812;-70
2022/03/23 15:22:07;;;;;;;;;;;;;;;;;;4983410;28;1462;-69
2022/03/23 15:24:33;;;;;;;;;;;;;;;;;;4983302;28;1328;-69
2022/03/23 15:26:59;;;;;;;;;;;;;;;;;;4981069;28;1894;-69
2022/03/23 15:29:24;;;;;;;;;;;;;;;;;;4981654;28;1463;-69
2022/03/23 15:31:49;;;;;;;;;;;;;;;;;;4980669;28;1406;-70
2022/03/23 15:34:15;;;;;;;;;;;;;;;;;;4980756;28;1466;-69
2022/03/23 15:36:40;;;;;;;;;;;;;;;;;;4982443;28;1246;-70
2022/03/23 15:39:09;;;;;;;;;;;;;;;;;;4981372;28;1431;-70
2022/03/23 15:41:34;;;;;;;;;;;;;;;;;;4981192;28;1511;-70
2022/03/23 15:44:05;;;;;;;;;;;;;;;;;;4982854;28;1430;-71
2022/03/23 15:46:30;;;;;;;;;;;;;;;;;;4980568;28;1903;-69
2022/03/23 15:48:59;;;;;;;;;;;;;;;;;;4983413;28;1406;-70
2022/03/23 15:51:24;;;;;;;;;;;;;;;;;;4982445;28;1454;-69
2022/03/23 15:53:50;;;;;;;;;;;;;;;;;;4980490;28;1520;-68
2022/03/23 15:56:15;;;;;;;;;;;;;;;;;;4980942;28;1482;-69
2022/03/23 15:58:41;;;;;;;;;;;;;;;;;;4980007;28;1414;-69
2022/03/23 16:01:06;;;;;;;;;;;;;;;;;;4981159;28;1416;-69
2022/03/23 16:03:32;;;;;;;;;;;;;;;;;;4981924;28;1414;-69
2022/03/23 16:05:57;;;;;;;;;;;;;;;;;;4982507;28;1895;-71
2022/03/23 16:08:23;;;;;;;;;;;;;;;;;;4981395;28;1509;-70
2022/03/23 16:10:49;;;;;;;;;;;;;;;;;;4980473;28;1477;-70
2022/03/23 16:13:14;;;;;;;;;;;;;;;;;;4982039;28;1467;-69
2022/03/23 16:15:39;;;;;;;;;;;;;;;;;;4981749;28;1390;-69
2022/03/23 16:18:05;;;;;;;;;;;;;;;;;;4983419;28;1098;-70
2022/03/23 16:20:31;;;;;;;;;;;;;;;;;;4982682;28;1264;-71
2022/03/23 16:22:57;;;;;;;;;;;;;;;;;;4983027;28;1165;-71
2022/03/23 16:25:23;;;;;;;;;;;;;;;;;;4981587;28;1382;-73
2022/03/23 16:27:49;;;;;;;;;;;;;;;;;;4981775;28;1918;-71
2022/03/23 16:30:15;;;;;;;;;;;;;;;;;;4983955;28;1497;-71
2022/03/23 16:32:40;;;;;;;;;;;;;;;;;;4982297;28;1407;-71
2022/03/23 16:35:10;;;;;;;;;;;;;;;;;;4982129;28;1386;-71
2022/03/23 16:37:36;;;;;;;;;;;;;;;;;;4981778;28;1424;-71
2022/03/23 16:40:03;;;;;;;;;;;;;;;;;;4982254;28;1439;-71
2022/03/23 16:42:28;;;;;;;;;;;;;;;;;;4971690;28;1480;-71
2022/03/23 16:44:53;;;;;;;;;;;;;;;;;;4982343;28;1161;-70
2022/03/23 16:47:19;;;;;;;;;;;;;;;;;;4981538;28;1902;-71
2022/03/23 16:49:45;;;;;;;;;;;;;;;;;;4980902;28;1403;-70
2022/03/23 16:52:11;;;;;;;;;;;;;;;;;;4981426;28;1569;-71
2022/03/23 16:54:36;;;;;;;;;;;;;;;;;;4979462;28;1477;-70
2022/03/23 16:57:03;;;;;;;;;;;;;;;;;;4980371;28;1340;-69
2022/03/23 16:59:28;;;;;;;;;;;;;;;;;;4980701;28;1302;-70
2022/03/23 17:01:53;;;;;;;;;;;;;;;;;;4981506;28;1305;-71
2022/03/23 17:12:31;;;;;;;;;;;;;;;;;;4982524;28;1054;-71
2022/03/23 17:14:58;;;;;;;;;;;;;;;;;;4980783;28;1312;-71
2022/03/23 17:17:25;;;;;;;;;;;;;;;;;;4981185;28;1312;-71
2022/03/23 17:19:50;;;;;;;;;;;;;;;;;;4981602;28;1261;-70
2022/03/23 17:22:15;;;;;;;;;;;;;;;;;;4980643;28;1256;-70
2022/03/23 17:24:41;;;;;;;;;;;;;;;;;;4981187;28;1233;-70
2022/03/23 17:27:06;;;;;;;;;;;;;;;;;;4980926;28;1906;-70
2022/03/23 17:29:32;;;;;;;;;;;;;;;;;;4981036;28;1311;-70
2022/03/23 17:31:58;;;;;;;;;;;;;;;;;;4981100;28;1297;-72
2022/03/23 17:34:23;;;;;;;;;;;;;;;;;;4980739;28;1272;-71
2022/03/23 17:36:49;;;;;;;;;;;;;;;;;;4981438;28;1256;-71
2022/03/23 17:39:15;;;;;;;;;;;;;;;;;;4981703;28;1276;-69
2022/03/23 17:41:41;;;;;;;;;;;;;;;;;;4981010;28;1269;-69
2022/03/23 17:44:06;;;;;;;;;;;;;;;;;;4980626;28;1559;-69
2022/03/23 17:46:31;;;;;;;;;;;;;;;;;;4980363;28;1898;-69
2022/03/23 17:48:56;;;;;;;;;;;;;;;;;;4980815;28;1348;-69
2022/03/23 17:51:23;;;;;;;;;;;;;;;;;;4980629;28;1221;-70
2022/03/23 17:53:48;;;;;;;;;;;;;;;;;;4980442;28;1324;-67